Wetterdaten: Woche 23.07.12 - 29.07.12 (KW30)
Datum Zeit Temp. Innen Temp. Aussen UV X Diff Temp. Feuchte Inne Feuchte Auss Sonnenschein Luftdruck Regen ab 0,1 Wind Sonnenschein T Regendauer Windben
23.07.2012 00:00 22,3 C 13,2 C 0,0 UV-I 0,0 C 54 % 84 % 0 % 1027,3 hPa 0,0 l/m 0,0 km/h (0 Bft) 0,00 h 0,00 h 0,0 km/h (0 Bft)
23.07.2012 01:00 22,0 C 12,4 C 0,0 UV-I 0,0 C 55 % 87 % 0 % 1027,2 hPa 0,0 l/m 0,0 km/h (0 Bft) 0,00 h 0,00 h 0,0 km/h (0 Bft)
23.07.2012 02:00 21,8 C 12,0 C 0,0 UV-I 0,0 C 56 % 90 % 0 % 1027,1 hPa 0,0 l/m 0,0 km/h (0 Bft) 0,00 h 0,00 h 0,0 km/h (0 Bft)
23.07.2012 03:00 21,7 C 12,3 C 0,0 UV-I 0,0 C 56 % 91 % 0 % 1027,0 hPa 0,0 l/m 0,5 km/h (0 Bft) 0,00 h 0,00 h 1,7 km/h (1 Bft)
23.07.2012 04:00 21,6 C 12,2 C 0,0 UV-I 0,0 C 56 % 90 % 0 % 1026,9 hPa 0,0 l/m 0,7 km/h (0 Bft) 0,00 h 0,00 h 2,0 km/h (1 Bft)
23.07.2012 05:00 21,5 C 11,8 C 0,0 UV-I 0,0 C 56 % 90 % 0 % 1027,1 hPa 0,0 l/m 1,3 km/h (1 Bft) 0,00 h 0,00 h 4,4 km/h (1 Bft)
23.07.2012 06:00 21,3 C 11,5 C 0,0 UV-I 0,0 C 56 % 91 % 0 % 1027,1 hPa 0,0 l/m 1,3 km/h (1 Bft) 0,00 h 0,00 h 3,4 km/h (1 Bft)
23.07.2012 07:00 21,3 C 12,4 C 0,0 UV-I 0,0 C 56 % 91 % 0 % 1027,6 hPa 0,0 l/m 2,3 km/h (1 Bft) 0,00 h 0,00 h 6,7 km/h (2 Bft)
23.07.2012 08:00 21,3 C 14,5 C 0,4 UV-I 3,9 C 56 % 88 % 59 % 1027,5 hPa 0,0 l/m 4,2 km/h (1 Bft) 0,53 h 0,00 h 8,0 km/h (2 Bft)
23.07.2012 09:00 21,5 C 18,0 C 2,5 UV-I 7,3 C 56 % 77 % 100 % 1027,4 hPa 0,0 l/m 5,3 km/h (1 Bft) 1,00 h 0,00 h 10,9 km/h (2 Bft)
23.07.2012 10:00 21,9 C 20,6 C 4,6 UV-I 6,6 C 55 % 65 % 100 % 1027,3 hPa 0,0 l/m 6,2 km/h (2 Bft) 1,00 h 0,00 h 11,1 km/h (2 Bft)
23.07.2012 11:00 22,3 C 22,6 C 4,3 UV-I 6,4 C 55 % 57 % 100 % 1026,7 hPa 0,0 l/m 5,9 km/h (2 Bft) 1,00 h 0,00 h 10,8 km/h (2 Bft)
23.07.2012 12:00 22,7 C 23,7 C 2,9 UV-I 5,6 C 54 % 51 % 100 % 1026,3 hPa 0,0 l/m 6,4 km/h (2 Bft) 1,00 h 0,00 h 10,9 km/h (2 Bft)
23.07.2012 13:00 23,2 C 25,0 C 2,1 UV-I 5,2 C 52 % 47 % 100 % 1025,6 hPa 0,0 l/m 6,0 km/h (2 Bft) 1,00 h 0,00 h 11,6 km/h (2 Bft)
23.07.2012 14:00 24,3 C 25,9 C 2,2 UV-I 4,7 C 50 % 42 % 100 % 1025,2 hPa 0,0 l/m 6,5 km/h (2 Bft) 1,00 h 0,00 h 12,2 km/h (2 Bft)
23.07.2012 15:00 25,9 C 26,6 C 2,4 UV-I 4,8 C 46 % 40 % 100 % 1024,5 hPa 0,0 l/m 6,4 km/h (2 Bft) 1,00 h 0,00 h 10,9 km/h (2 Bft)
23.07.2012 16:00 27,1 C 27,1 C 4,0 UV-I 4,9 C 42 % 38 % 100 % 1023,4 hPa 0,0 l/m 5,7 km/h (1 Bft) 1,00 h 0,00 h 9,4 km/h (2 Bft)
23.07.2012 17:00 26,7 C 27,4 C 4,2 UV-I 4,7 C 43 % 38 % 100 % 1023,2 hPa 0,0 l/m 4,7 km/h (1 Bft) 1,00 h 0,00 h 8,2 km/h (2 Bft)
23.07.2012 18:00 26,1 C 26,2 C 1,0 UV-I 2,6 C 44 % 40 % 64 % 1022,5 hPa 0,0 l/m 5,9 km/h (2 Bft) 0,47 h 0,00 h 9,8 km/h (2 Bft)
23.07.2012 19:00 25,3 C 25,3 C 0,5 UV-I 0,0 C 45 % 41 % 0 % 1022,2 hPa 0,0 l/m 2,9 km/h (1 Bft) 0,00 h 0,00 h 6,3 km/h (2 Bft)
23.07.2012 20:00 24,8 C 24,3 C 0,1 UV-I 0,0 C 47 % 46 % 0 % 1021,9 hPa 0,0 l/m 1,1 km/h (1 Bft) 0,00 h 0,00 h 2,0 km/h (1 Bft)
23.07.2012 21:00 24,5 C 22,0 C 0,0 UV-I 0,0 C 48 % 55 % 0 % 1021,8 hPa 0,0 l/m 0,0 km/h (0 Bft) 0,00 h 0,00 h 0,0 km/h (0 Bft)
23.07.2012 22:00 24,1 C 19,2 C 0,0 UV-I 0,0 C 50 % 65 % 0 % 1022,2 hPa 0,0 l/m 0,0 km/h (0 Bft) 0,00 h 0,00 h 0,0 km/h (0 Bft)
23.07.2012 23:00 23,8 C 17,2 C 0,0 UV-I 0,0 C 51 % 74 % 0 % 1022,1 hPa 0,0 l/m 0,0 km/h (0 Bft) 0,00 h 0,00 h 0,0 km/h (0 Bft)
24.07.2012 00:00 23,6 C 15,8 C 0,0 UV-I 0,0 C 52 % 79 % 0 % 1022,1 hPa 0,0 l/m 0,0 km/h (0 Bft) 0,00 h 0,00 h 0,0 km/h (0 Bft)
24.07.2012 01:00 23,3 C 14,7 C 0,0 UV-I 0,0 C 53 % 84 % 0 % 1021,8 hPa 0,0 l/m 0,0 km/h (0 Bft) 0,00 h 0,00 h 0,0 km/h (0 Bft)
24.07.2012 02:00 23,1 C 13,9 C 0,0 UV-I 0,0 C 54 % 86 % 0 % 1021,6 hPa 0,0 l/m 0,0 km/h (0 Bft) 0,00 h 0,00 h 0,0 km/h (0 Bft)
24.07.2012 03:00 22,9 C 13,2 C 0,0 UV-I 0,0 C 55 % 88 % 0 % 1021,5 hPa 0,0 l/m 0,0 km/h (0 Bft) 0,00 h 0,03 h 0,0 km/h (0 Bft)
24.07.2012 04:00 22,7 C 12,6 C 0,0 UV-I 0,0 C 55 % 90 % 0 % 1021,2 hPa 0,0 l/m 0,0 km/h (0 Bft) 0,00 h 0,00 h 0,0 km/h (0 Bft)
24.07.2012 05:00 22,4 C 12,1 C 0,0 UV-I 0,0 C 56 % 91 % 0 % 1021,0 hPa 0,0 l/m 0,0 km/h (0 Bft) 0,00 h 0,00 h 0,0 km/h (0 Bft)
24.07.2012 06:00 22,2 C 11,8 C 0,0 UV-I 0,0 C 56 % 92 % 0 % 1020,8 hPa 0,0 l/m 0,0 km/h (0 Bft) 0,00 h 0,00 h 0,0 km/h (0 Bft)
24.07.2012 07:00 22,2 C 12,6 C 0,0 UV-I 0,0 C 56 % 94 % 0 % 1020,6 hPa 0,0 l/m 0,0 km/h (0 Bft) 0,00 h 0,00 h 0,0 km/h (0 Bft)
24.07.2012 08:00 22,3 C 15,8 C 0,5 UV-I 4,7 C 57 % 92 % 60 % 1020,6 hPa 0,0 l/m 0,9 km/h (0 Bft) 0,53 h 0,00 h 2,4 km/h (1 Bft)
24.07.2012 09:00 22,6 C 20,4 C 2,7 UV-I 8,9 C 56 % 77 % 100 % 1020,2 hPa 0,0 l/m 2,6 km/h (1 Bft) 1,00 h 0,00 h 6,2 km/h (2 Bft)
24.07.2012 10:00 23,0 C 23,3 C 5,1 UV-I 8,1 C 55 % 63 % 100 % 1019,9 hPa 0,0 l/m 2,9 km/h (1 Bft) 0,98 h 0,00 h 6,2 km/h (2 Bft)
24.07.2012 11:00 23,2 C 25,5 C 4,6 UV-I 7,8 C 55 % 52 % 100 % 1019,0 hPa 0,0 l/m 3,7 km/h (1 Bft) 1,00 h 0,00 h 7,9 km/h (2 Bft)
24.07.2012 12:00 23,5 C 27,0 C 2,9 UV-I 6,4 C 55 % 45 % 100 % 1018,3 hPa 0,0 l/m 5,7 km/h (1 Bft) 1,00 h 0,00 h 11,0 km/h (2 Bft)
24.07.2012 13:00 24,0 C 27,9 C 2,3 UV-I 5,7 C 54 % 40 % 100 % 1017,7 hPa 0,0 l/m 6,3 km/h (2 Bft) 1,00 h 0,00 h 13,2 km/h (3 Bft)
24.07.2012 14:00 24,8 C 28,5 C 2,6 UV-I 5,6 C 52 % 40 % 100 % 1017,5 hPa 0,0 l/m 5,1 km/h (1 Bft) 1,00 h 0,00 h 9,3 km/h (2 Bft)
24.07.2012 15:00 25,0 C 29,0 C 2,6 UV-I 5,0 C 51 % 39 % 100 % 1016,7 hPa 0,0 l/m 4,2 km/h (1 Bft) 1,00 h 0,00 h 9,8 km/h (2 Bft)
24.07.2012 16:00 25,0 C 28,7 C 3,2 UV-I 5,0 C 51 % 41 % 100 % 1016,3 hPa 0,0 l/m 5,8 km/h (2 Bft) 1,00 h 0,00 h 10,4 km/h (2 Bft)
24.07.2012 17:00 25,0 C 28,7 C 2,9 UV-I 4,6 C 51 % 44 % 100 % 1015,9 hPa 0,0 l/m 4,1 km/h (1 Bft) 1,00 h 0,00 h 7,6 km/h (2 Bft)
24.07.2012 18:00 25,0 C 28,2 C 1,1 UV-I 3,2 C 51 % 47 % 75 % 1015,3 hPa 0,0 l/m 3,8 km/h (1 Bft) 0,53 h 0,00 h 7,6 km/h (2 Bft)
24.07.2012 19:00 25,0 C 27,5 C 0,5 UV-I 0,2 C 52 % 50 % 7 % 1015,0 hPa 0,0 l/m 5,4 km/h (1 Bft) 0,00 h 0,00 h 9,8 km/h (2 Bft)
24.07.2012 20:00 24,9 C 26,2 C 0,1 UV-I 0,0 C 52 % 55 % 0 % 1014,9 hPa 0,0 l/m 3,3 km/h (1 Bft) 0,00 h 0,00 h 7,5 km/h (2 Bft)
24.07.2012 21:00 24,9 C 24,2 C 0,0 UV-I 0,0 C 53 % 61 % 0 % 1015,0 hPa 0,0 l/m 0,2 km/h (0 Bft) 0,00 h 0,00 h 0,3 km/h (0 Bft)
24.07.2012 22:00 24,7 C 21,8 C 0,0 UV-I 0,0 C 54 % 68 % 0 % 1015,2 hPa 0,0 l/m 0,0 km/h (0 Bft) 0,00 h 0,00 h 0,0 km/h (0 Bft)
24.07.2012 23:00 24,6 C 20,3 C 0,0 UV-I 0,0 C 55 % 74 % 0 % 1015,1 hPa 0,0 l/m 0,0 km/h (0 Bft) 0,00 h 0,00 h 0,0 km/h (0 Bft)
25.07.2012 00:00 24,4 C 19,3 C 0,0 UV-I 0,0 C 55 % 78 % 0 % 1014,8 hPa 0,0 l/m 0,0 km/h (0 Bft) 0,00 h 0,00 h 0,0 km/h (0 Bft)
25.07.2012 01:00 24,3 C 18,3 C 0,0 UV-I 0,0 C 56 % 81 % 0 % 1014,6 hPa 0,0 l/m 0,0 km/h (0 Bft) 0,00 h 0,00 h 0,0 km/h (0 Bft)
25.07.2012 02:00 24,2 C 17,3 C 0,0 UV-I 0,0 C 57 % 84 % 0 % 1014,3 hPa 0,0 l/m 0,0 km/h (0 Bft) 0,00 h 0,00 h 0,0 km/h (0 Bft)
25.07.2012 03:00 24,1 C 16,5 C 0,0 UV-I 0,0 C 57 % 87 % 0 % 1014,0 hPa 0,0 l/m 0,0 km/h (0 Bft) 0,00 h 0,00 h 0,0 km/h (0 Bft)
25.07.2012 04:00 24,0 C 15,9 C 0,0 UV-I 0,0 C 57 % 89 % 0 % 1014,1 hPa 0,0 l/m 0,0 km/h (0 Bft) 0,00 h 0,00 h 0,0 km/h (0 Bft)
25.07.2012 05:00 23,8 C 15,4 C 0,0 UV-I 0,0 C 57 % 90 % 0 % 1014,1 hPa 0,0 l/m 0,0 km/h (0 Bft) 0,00 h 0,00 h 0,0 km/h (0 Bft)
25.07.2012 06:00 23,7 C 15,2 C 0,0 UV-I 0,0 C 58 % 91 % 0 % 1014,3 hPa 0,0 l/m 0,0 km/h (0 Bft) 0,00 h 0,00 h 0,0 km/h (0 Bft)
25.07.2012 07:00 23,7 C 16,0 C 0,1 UV-I 0,3 C 58 % 93 % 10 % 1014,4 hPa 0,0 l/m 0,0 km/h (0 Bft) 0,00 h 0,00 h 0,0 km/h (0 Bft)
25.07.2012 08:00 23,8 C 18,1 C 0,6 UV-I 4,8 C 58 % 92 % 70 % 1014,6 hPa 0,0 l/m 0,0 km/h (0 Bft) 0,53 h 0,00 h 0,0 km/h (0 Bft)
25.07.2012 09:00 23,9 C 22,3 C 2,3 UV-I 9,7 C 59 % 81 % 100 % 1014,8 hPa 0,0 l/m 0,9 km/h (0 Bft) 1,00 h 0,00 h 3,4 km/h (1 Bft)
25.07.2012 10:00 24,1 C 25,2 C 4,4 UV-I 9,1 C 59 % 67 % 100 % 1014,6 hPa 0,0 l/m 2,6 km/h (1 Bft) 1,00 h 0,00 h 6,2 km/h (2 Bft)
25.07.2012 11:00 24,3 C 27,2 C 4,3 UV-I 8,2 C 59 % 58 % 100 % 1014,6 hPa 0,0 l/m 4,1 km/h (1 Bft) 1,00 h 0,00 h 9,1 km/h (2 Bft)
25.07.2012 12:00 24,6 C 28,4 C 3,1 UV-I 7,2 C 58 % 53 % 100 % 1014,4 hPa 0,0 l/m 5,0 km/h (1 Bft) 1,00 h 0,00 h 10,9 km/h (2 Bft)
25.07.2012 13:00 25,1 C 29,3 C 2,8 UV-I 6,6 C 57 % 49 % 100 % 1014,2 hPa 0,0 l/m 6,0 km/h (2 Bft) 1,00 h 0,00 h 9,8 km/h (2 Bft)
25.07.2012 14:00 26,0 C 30,1 C 2,9 UV-I 5,8 C 56 % 48 % 100 % 1013,9 hPa 0,0 l/m 5,8 km/h (2 Bft) 1,00 h 0,00 h 11,2 km/h (2 Bft)
25.07.2012 15:00 27,0 C 29,9 C 2,3 UV-I 3,8 C 53 % 47 % 90 % 1013,6 hPa 0,0 l/m 5,6 km/h (1 Bft) 0,77 h 0,00 h 10,2 km/h (2 Bft)
25.07.2012 16:00 27,0 C 29,5 C 2,5 UV-I 3,2 C 52 % 49 % 82 % 1013,8 hPa 0,0 l/m 6,8 km/h (2 Bft) 0,60 h 0,00 h 10,7 km/h (2 Bft)
25.07.2012 17:00 26,6 C 29,9 C 2,5 UV-I 4,1 C 53 % 47 % 98 % 1013,9 hPa 0,0 l/m 6,3 km/h (2 Bft) 0,97 h 0,00 h 11,0 km/h (2 Bft)
25.07.2012 18:00 26,5 C 29,5 C 1,2 UV-I 2,9 C 53 % 48 % 72 % 1014,2 hPa 0,0 l/m 5,0 km/h (1 Bft) 0,43 h 0,00 h 8,7 km/h (2 Bft)
25.07.2012 19:00 26,1 C 28,7 C 0,5 UV-I 0,1 C 54 % 50 % 3 % 1014,1 hPa 0,0 l/m 3,9 km/h (1 Bft) 0,00 h 0,00 h 8,0 km/h (2 Bft)
25.07.2012 20:00 26,0 C 27,6 C 0,1 UV-I 0,0 C 55 % 54 % 0 % 1014,4 hPa 0,0 l/m 1,3 km/h (1 Bft) 0,00 h 0,00 h 3,4 km/h (1 Bft)
25.07.2012 21:00 25,8 C 25,4 C 0,0 UV-I 0,0 C 55 % 61 % 0 % 1014,9 hPa 0,0 l/m 0,0 km/h (0 Bft) 0,00 h 0,00 h 0,0 km/h (0 Bft)
25.07.2012 22:00 25,6 C 23,0 C 0,0 UV-I 0,0 C 56 % 68 % 0 % 1015,1 hPa 0,0 l/m 0,0 km/h (0 Bft) 0,00 h 0,00 h 0,0 km/h (0 Bft)
25.07.2012 23:00 25,4 C 21,4 C 0,0 UV-I 0,0 C 57 % 75 % 0 % 1015,6 hPa 0,0 l/m 0,0 km/h (0 Bft) 0,00 h 0,00 h 0,0 km/h (0 Bft)
26.07.2012 00:00 25,3 C 20,4 C 0,0 UV-I 0,0 C 58 % 79 % 0 % 1015,9 hPa 0,0 l/m 0,0 km/h (0 Bft) 0,00 h 0,00 h 0,0 km/h (0 Bft)
26.07.2012 01:00 25,2 C 19,5 C 0,0 UV-I 0,0 C 58 % 82 % 0 % 1016,0 hPa 0,0 l/m 0,0 km/h (0 Bft) 0,00 h 0,00 h 0,0 km/h (0 Bft)
26.07.2012 02:00 25,0 C 18,9 C 0,0 UV-I 0,0 C 59 % 85 % 0 % 1015,9 hPa 0,0 l/m 0,0 km/h (0 Bft) 0,00 h 0,00 h 0,0 km/h (0 Bft)
26.07.2012 03:00 25,0 C 18,3 C 0,0 UV-I 0,0 C 59 % 87 % 0 % 1016,1 hPa 0,0 l/m 0,0 km/h (0 Bft) 0,00 h 0,00 h 0,0 km/h (0 Bft)
26.07.2012 04:00 24,8 C 17,6 C 0,0 UV-I 0,0 C 60 % 89 % 0 % 1016,3 hPa 0,0 l/m 0,0 km/h (0 Bft) 0,00 h 0,00 h 0,0 km/h (0 Bft)
26.07.2012 05:00 24,7 C 17,0 C 0,0 UV-I 0,0 C 60 % 91 % 0 % 1016,6 hPa 0,0 l/m 0,0 km/h (0 Bft) 0,00 h 0,00 h 0,0 km/h (0 Bft)
26.07.2012 06:00 24,6 C 16,7 C 0,0 UV-I 0,0 C 60 % 92 % 0 % 1016,6 hPa 0,0 l/m 0,3 km/h (0 Bft) 0,00 h 0,00 h 1,2 km/h (1 Bft)
26.07.2012 07:00 24,5 C 17,4 C 0,1 UV-I 0,1 C 60 % 93 % 3 % 1016,9 hPa 0,0 l/m 2,8 km/h (1 Bft) 0,00 h 0,00 h 7,6 km/h (2 Bft)
26.07.2012 08:00 24,5 C 18,9 C 0,7 UV-I 3,1 C 60 % 90 % 60 % 1017,1 hPa 0,0 l/m 4,1 km/h (1 Bft) 0,47 h 0,00 h 7,0 km/h (2 Bft)
26.07.2012 09:00 24,6 C 20,8 C 1,5 UV-I 6,2 C 60 % 84 % 100 % 1017,5 hPa 0,0 l/m 5,0 km/h (1 Bft) 0,87 h 0,00 h 8,4 km/h (2 Bft)
26.07.2012 10:00 24,7 C 23,2 C 3,1 UV-I 7,7 C 61 % 76 % 100 % 1017,4 hPa 0,0 l/m 5,0 km/h (1 Bft) 0,40 h 0,00 h 5,3 km/h (1 Bft)
26.07.2012 11:00 24,9 C 25,1 C 3,5 UV-I 7,9 C 61 % 70 % 100 % 1017,3 hPa 0,0 l/m 5,9 km/h (2 Bft) 0,43 h 0,00 h 9,7 km/h (2 Bft)
26.07.2012 12:00 25,2 C 26,7 C 3,2 UV-I 7,2 C 60 % 65 % 100 % 1017,1 hPa 0,0 l/m 6,1 km/h (2 Bft) 1,00 h 0,00 h 11,7 km/h (2 Bft)
26.07.2012 13:00 25,6 C 28,2 C 2,9 UV-I 6,5 C 59 % 60 % 100 % 1016,8 hPa 0,0 l/m 7,2 km/h (2 Bft) 1,00 h 0,00 h 14,7 km/h (3 Bft)
26.07.2012 14:00 26,5 C 29,2 C 3,0 UV-I 5,9 C 58 % 56 % 100 % 1016,6 hPa 0,0 l/m 8,5 km/h (2 Bft) 1,00 h 0,00 h 14,7 km/h (3 Bft)
26.07.2012 15:00 27,7 C 29,6 C 3,1 UV-I 5,4 C 55 % 53 % 100 % 1016,4 hPa 0,0 l/m 9,3 km/h (2 Bft) 1,00 h 0,00 h 15,4 km/h (3 Bft)
26.07.2012 16:00 27,9 C 30,0 C 3,5 UV-I 5,4 C 54 % 51 % 100 % 1015,1 hPa 0,0 l/m 8,8 km/h (2 Bft) 1,00 h 0,00 h 14,8 km/h (3 Bft)
26.07.2012 17:00 28,5 C 30,0 C 2,6 UV-I 4,5 C 52 % 51 % 100 % 1014,6 hPa 0,0 l/m 9,2 km/h (2 Bft) 1,00 h 0,00 h 14,4 km/h (3 Bft)
26.07.2012 18:00 28,2 C 29,0 C 1,1 UV-I 2,1 C 52 % 53 % 60 % 1014,6 hPa 0,0 l/m 12,0 km/h (2 Bft) 0,33 h 0,00 h 18,5 km/h (3 Bft)
26.07.2012 19:00 27,4 C 28,2 C 0,4 UV-I 0,1 C 54 % 55 % 4 % 1015,0 hPa 0,0 l/m 10,7 km/h (2 Bft) 0,00 h 0,00 h 15,4 km/h (3 Bft)
26.07.2012 20:00 26,9 C 27,0 C 0,0 UV-I 0,0 C 55 % 59 % 0 % 1014,9 hPa 0,0 l/m 6,6 km/h (2 Bft) 0,00 h 0,00 h 9,3 km/h (2 Bft)
26.07.2012 21:00 26,6 C 25,5 C 0,0 UV-I 0,0 C 56 % 63 % 0 % 1015,1 hPa 0,0 l/m 3,1 km/h (1 Bft) 0,00 h 0,00 h 5,1 km/h (1 Bft)
26.07.2012 22:00 26,3 C 23,8 C 0,0 UV-I 0,0 C 57 % 67 % 0 % 1015,2 hPa 0,0 l/m 0,4 km/h (0 Bft) 0,00 h 0,00 h 0,6 km/h (0 Bft)
26.07.2012 23:00 26,0 C 22,1 C 0,0 UV-I 0,0 C 58 % 73 % 0 % 1015,5 hPa 0,0 l/m 0,0 km/h (0 Bft) 0,00 h 0,00 h 0,0 km/h (0 Bft)
27.07.2012 00:00 25,9 C 21,3 C 0,0 UV-I 0,0 C 58 % 78 % 0 % 1015,3 hPa 0,0 l/m 0,0 km/h (0 Bft) 0,00 h 0,00 h 0,0 km/h (0 Bft)
27.07.2012 01:00 25,8 C 21,1 C 0,0 UV-I 0,0 C 59 % 80 % 0 % 1015,0 hPa 0,0 l/m 0,0 km/h (0 Bft) 0,00 h 0,00 h 0,0 km/h (0 Bft)
27.07.2012 02:00 25,8 C 20,9 C 0,0 UV-I 0,0 C 59 % 82 % 0 % 1014,3 hPa 0,0 l/m 0,1 km/h (0 Bft) 0,00 h 0,00 h 0,3 km/h (0 Bft)
27.07.2012 03:00 25,7 C 20,5 C 0,0 UV-I 0,0 C 60 % 83 % 0 % 1013,9 hPa 0,0 l/m 0,1 km/h (0 Bft) 0,00 h 0,00 h 0,0 km/h (0 Bft)
27.07.2012 04:00 25,6 C 20,1 C 0,0 UV-I 0,0 C 60 % 84 % 0 % 1013,2 hPa 0,0 l/m 0,0 km/h (0 Bft) 0,00 h 0,00 h 0,0 km/h (0 Bft)
27.07.2012 05:00 25,5 C 19,2 C 0,0 UV-I 0,0 C 60 % 86 % 0 % 1012,8 hPa 0,0 l/m 0,0 km/h (0 Bft) 0,00 h 0,00 h 0,0 km/h (0 Bft)
27.07.2012 06:00 25,4 C 18,6 C 0,0 UV-I 0,0 C 61 % 88 % 0 % 1012,4 hPa 0,0 l/m 0,0 km/h (0 Bft) 0,00 h 0,00 h 0,0 km/h (0 Bft)
27.07.2012 07:00 25,3 C 19,6 C 0,1 UV-I 0,2 C 61 % 89 % 6 % 1012,1 hPa 0,0 l/m 0,0 km/h (0 Bft) 0,00 h 0,00 h 1,0 km/h (0 Bft)
27.07.2012 08:00 25,4 C 21,3 C 0,7 UV-I 2,8 C 61 % 86 % 57 % 1012,0 hPa 0,0 l/m 2,9 km/h (1 Bft) 0,40 h 0,00 h 6,1 km/h (2 Bft)
27.07.2012 09:00 25,5 C 24,3 C 2,1 UV-I 6,9 C 61 % 79 % 100 % 1011,7 hPa 0,0 l/m 3,3 km/h (1 Bft) 1,00 h 0,00 h 7,1 km/h (2 Bft)
27.07.2012 10:00 25,7 C 26,9 C 3,7 UV-I 7,8 C 61 % 70 % 100 % 1011,4 hPa 0,0 l/m 2,7 km/h (1 Bft) 1,00 h 0,00 h 4,8 km/h (1 Bft)
27.07.2012 11:00 25,9 C 27,9 C 3,0 UV-I 6,1 C 61 % 66 % 100 % 1011,1 hPa 0,0 l/m 2,1 km/h (1 Bft) 1,00 h 0,00 h 5,8 km/h (2 Bft)
27.07.2012 12:00 26,2 C 29,2 C 3,3 UV-I 7,1 C 60 % 61 % 100 % 1010,7 hPa 0,0 l/m 3,8 km/h (1 Bft) 1,00 h 0,00 h 8,5 km/h (2 Bft)
27.07.2012 13:00 26,6 C 30,6 C 3,1 UV-I 6,3 C 59 % 53 % 100 % 1010,3 hPa 0,0 l/m 4,3 km/h (1 Bft) 1,00 h 0,00 h 9,4 km/h (2 Bft)
27.07.2012 14:00 27,5 C 31,4 C 3,1 UV-I 5,9 C 57 % 49 % 100 % 1010,0 hPa 0,0 l/m 5,3 km/h (1 Bft) 1,00 h 0,00 h 10,2 km/h (2 Bft)
27.07.2012 15:00 28,8 C 31,9 C 3,1 UV-I 5,6 C 54 % 48 % 100 % 1009,1 hPa 0,0 l/m 5,2 km/h (1 Bft) 1,00 h 0,00 h 10,9 km/h (2 Bft)
27.07.2012 16:00 28,9 C 30,3 C 0,7 UV-I 1,6 C 52 % 51 % 39 % 1009,0 hPa 0,0 l/m 3,0 km/h (1 Bft) 0,23 h 0,07 h 5,3 km/h (1 Bft)
27.07.2012 17:00 28,0 C 25,6 C 0,6 UV-I 0,2 C 56 % 71 % 5 % 1009,1 hPa 0,1 l/m 3,2 km/h (1 Bft) 0,00 h 0,45 h 6,1 km/h (2 Bft)
27.07.2012 18:00 27,9 C 25,4 C 1,1 UV-I 3,0 C 58 % 76 % 82 % 1007,7 hPa 0,0 l/m 2,6 km/h (1 Bft) 0,67 h 0,00 h 5,6 km/h (1 Bft)
27.07.2012 19:00 27,6 C 26,0 C 0,2 UV-I 1,0 C 58 % 74 % 28 % 1007,5 hPa 0,0 l/m 1,0 km/h (0 Bft) 0,00 h 0,00 h 2,7 km/h (1 Bft)
27.07.2012 20:00 27,4 C 25,0 C 0,0 UV-I 0,0 C 59 % 77 % 0 % 1008,1 hPa 0,0 l/m 3,9 km/h (1 Bft) 0,00 h 0,00 h 7,7 km/h (2 Bft)
27.07.2012 21:00 27,0 C 23,4 C 0,0 UV-I 0,0 C 60 % 79 % 0 % 1008,1 hPa 0,0 l/m 1,8 km/h (1 Bft) 0,00 h 0,00 h 4,0 km/h (1 Bft)
27.07.2012 22:00 26,7 C 22,1 C 0,0 UV-I 0,0 C 61 % 83 % 0 % 1007,6 hPa 0,0 l/m 0,8 km/h (0 Bft) 0,00 h 0,00 h 2,6 km/h (1 Bft)
27.07.2012 23:00 26,5 C 21,5 C 0,0 UV-I 0,0 C 62 % 86 % 0 % 1007,6 hPa 0,0 l/m 0,2 km/h (0 Bft) 0,00 h 0,00 h 0,7 km/h (0 Bft)
28.07.2012 00:00 26,4 C 21,2 C 0,0 UV-I 0,0 C 62 % 87 % 0 % 1007,6 hPa 0,0 l/m 0,1 km/h (0 Bft) 0,00 h 0,23 h 0,7 km/h (0 Bft)
28.07.2012 01:00 26,3 C 21,0 C 0,0 UV-I 0,0 C 62 % 89 % 0 % 1006,3 hPa 2,6 l/m 0,6 km/h (0 Bft) 0,00 h 1,00 h 1,3 km/h (1 Bft)
28.07.2012 02:00 26,1 C 19,9 C 0,0 UV-I 0,0 C 63 % 92 % 0 % 1005,6 hPa 0,5 l/m 1,3 km/h (1 Bft) 0,00 h 0,90 h 4,0 km/h (1 Bft)
28.07.2012 03:00 26,0 C 19,1 C 0,0 UV-I 0,0 C 64 % 94 % 0 % 1006,0 hPa 2,7 l/m 2,7 km/h (1 Bft) 0,00 h 0,80 h 8,4 km/h (2 Bft)
28.07.2012 04:00 25,8 C 18,6 C 0,0 UV-I 0,0 C 64 % 95 % 0 % 1006,3 hPa 2,3 l/m 1,9 km/h (1 Bft) 0,00 h 0,53 h 5,0 km/h (1 Bft)
28.07.2012 05:00 25,6 C 18,5 C 0,0 UV-I 0,0 C 64 % 95 % 0 % 1006,5 hPa 1,0 l/m 1,0 km/h (0 Bft) 0,00 h 0,67 h 4,1 km/h (1 Bft)
28.07.2012 06:00 25,6 C 18,4 C 0,0 UV-I 0,0 C 64 % 96 % 0 % 1007,1 hPa 2,8 l/m 0,5 km/h (0 Bft) 0,00 h 0,10 h 2,3 km/h (1 Bft)
28.07.2012 07:00 25,5 C 18,3 C 0,0 UV-I 0,0 C 65 % 97 % 0 % 1007,0 hPa 1,0 l/m 1,0 km/h (0 Bft) 0,00 h 0,37 h 3,6 km/h (1 Bft)
28.07.2012 08:00 25,5 C 18,4 C 0,1 UV-I 0,1 C 64 % 97 % 3 % 1007,1 hPa 0,0 l/m 0,8 km/h (0 Bft) 0,00 h 0,00 h 2,8 km/h (1 Bft)
28.07.2012 09:00 25,6 C 18,7 C 0,3 UV-I 0,7 C 64 % 97 % 20 % 1007,3 hPa 0,0 l/m 0,9 km/h (0 Bft) 0,00 h 0,00 h 3,5 km/h (1 Bft)
28.07.2012 10:00 25,7 C 19,2 C 0,8 UV-I 2,1 C 64 % 96 % 59 % 1007,4 hPa 0,0 l/m 2,0 km/h (1 Bft) 0,00 h 0,00 h 5,7 km/h (1 Bft)
28.07.2012 11:00 25,7 C 19,5 C 0,3 UV-I 1,4 C 64 % 95 % 40 % 1008,0 hPa 0,0 l/m 2,1 km/h (1 Bft) 0,00 h 0,00 h 4,1 km/h (1 Bft)
28.07.2012 12:00 25,7 C 19,7 C 0,6 UV-I 1,6 C 64 % 94 % 47 % 1008,2 hPa 0,0 l/m 3,3 km/h (1 Bft) 0,00 h 0,00 h 8,0 km/h (2 Bft)
28.07.2012 13:00 25,9 C 20,5 C 1,4 UV-I 2,9 C 64 % 91 % 83 % 1008,2 hPa 0,0 l/m 4,2 km/h (1 Bft) 0,50 h 0,00 h 8,3 km/h (2 Bft)
28.07.2012 14:00 26,1 C 21,4 C 1,4 UV-I 3,4 C 63 % 85 % 93 % 1008,3 hPa 0,0 l/m 3,3 km/h (1 Bft) 0,77 h 0,00 h 6,8 km/h (2 Bft)
28.07.2012 15:00 26,4 C 21,9 C 1,3 UV-I 3,6 C 62 % 81 % 97 % 1008,2 hPa 0,0 l/m 3,4 km/h (1 Bft) 1,00 h 0,00 h 8,0 km/h (2 Bft)
28.07.2012 16:00 26,5 C 22,2 C 1,1 UV-I 3,5 C 61 % 80 % 94 % 1008,4 hPa 0,0 l/m 1,7 km/h (1 Bft) 0,83 h 0,00 h 4,8 km/h (1 Bft)
28.07.2012 17:00 26,7 C 22,7 C 1,1 UV-I 3,2 C 61 % 78 % 82 % 1008,2 hPa 0,0 l/m 1,5 km/h (1 Bft) 0,57 h 0,00 h 4,7 km/h (1 Bft)
28.07.2012 18:00 26,7 C 22,8 C 0,8 UV-I 2,6 C 60 % 77 % 73 % 1007,5 hPa 0,0 l/m 1,1 km/h (1 Bft) 0,33 h 0,00 h 2,4 km/h (1 Bft)
28.07.2012 19:00 26,6 C 22,3 C 0,2 UV-I 0,6 C 60 % 78 % 16 % 1007,6 hPa 0,0 l/m 1,3 km/h (1 Bft) 0,00 h 0,00 h 2,6 km/h (1 Bft)
28.07.2012 20:00 26,3 C 21,9 C 0,0 UV-I 0,1 C 61 % 80 % 4 % 1007,6 hPa 0,0 l/m 0,6 km/h (0 Bft) 0,00 h 0,00 h 2,3 km/h (1 Bft)
28.07.2012 21:00 26,0 C 21,0 C 0,0 UV-I 0,0 C 62 % 83 % 0 % 1007,6 hPa 0,0 l/m 1,0 km/h (0 Bft) 0,00 h 0,00 h 3,1 km/h (1 Bft)
28.07.2012 22:00 25,7 C 20,3 C 0,0 UV-I 0,0 C 63 % 87 % 0 % 1007,9 hPa 0,0 l/m 1,9 km/h (1 Bft) 0,00 h 0,07 h 4,0 km/h (1 Bft)
28.07.2012 23:00 25,6 C 19,9 C 0,0 UV-I 0,0 C 63 % 89 % 0 % 1007,8 hPa 0,0 l/m 2,5 km/h (1 Bft) 0,00 h 0,00 h 5,4 km/h (1 Bft)
29.07.2012 00:00 25,4 C 19,4 C 0,0 UV-I 0,0 C 63 % 90 % 0 % 1008,4 hPa 0,0 l/m 2,5 km/h (1 Bft) 0,00 h 0,00 h 7,5 km/h (2 Bft)
29.07.2012 01:00 25,2 C 18,6 C 0,0 UV-I 0,0 C 63 % 90 % 0 % 1008,6 hPa 0,0 l/m 2,9 km/h (1 Bft) 0,00 h 0,00 h 7,2 km/h (2 Bft)
29.07.2012 02:00 25,0 C 18,0 C 0,0 UV-I 0,0 C 63 % 91 % 0 % 1009,0 hPa 0,0 l/m 4,4 km/h (1 Bft) 0,00 h 0,00 h 9,2 km/h (2 Bft)
29.07.2012 03:00 24,8 C 17,0 C 0,0 UV-I 0,0 C 62 % 90 % 0 % 1009,3 hPa 0,0 l/m 4,6 km/h (1 Bft) 0,00 h 0,00 h 9,0 km/h (2 Bft)
29.07.2012 04:00 24,5 C 16,1 C 0,0 UV-I 0,0 C 62 % 90 % 0 % 1009,5 hPa 0,0 l/m 3,9 km/h (1 Bft) 0,00 h 0,00 h 9,0 km/h (2 Bft)
29.07.2012 05:00 24,2 C 15,4 C 0,0 UV-I 0,0 C 62 % 91 % 0 % 1009,7 hPa 0,0 l/m 2,0 km/h (1 Bft) 0,00 h 0,00 h 5,9 km/h (2 Bft)
29.07.2012 06:00 23,9 C 14,5 C 0,0 UV-I 0,0 C 61 % 93 % 0 % 1009,7 hPa 0,0 l/m 2,3 km/h (1 Bft) 0,00 h 0,00 h 5,7 km/h (1 Bft)
29.07.2012 07:00 23,7 C 14,4 C 0,1 UV-I 0,1 C 60 % 93 % 2 % 1010,1 hPa 0,0 l/m 3,8 km/h (1 Bft) 0,00 h 0,00 h 8,2 km/h (2 Bft)
29.07.2012 08:00 23,7 C 15,4 C 0,7 UV-I 2,4 C 59 % 90 % 60 % 1010,6 hPa 0,0 l/m 4,4 km/h (1 Bft) 0,27 h 0,00 h 8,0 km/h (2 Bft)
29.07.2012 09:00 23,8 C 16,1 C 1,4 UV-I 4,5 C 57 % 85 % 94 % 1011,2 hPa 0,0 l/m 6,3 km/h (2 Bft) 0,80 h 0,00 h 10,2 km/h (2 Bft)
29.07.2012 10:00 24,0 C 16,7 C 1,5 UV-I 3,8 C 56 % 83 % 90 % 1011,6 hPa 0,0 l/m 5,4 km/h (1 Bft) 0,73 h 0,00 h 8,9 km/h (2 Bft)
29.07.2012 11:00 24,1 C 17,6 C 2,2 UV-I 4,1 C 56 % 78 % 90 % 1012,0 hPa 0,0 l/m 6,3 km/h (2 Bft) 0,80 h 0,00 h 12,8 km/h (3 Bft)
29.07.2012 12:00 24,1 C 19,2 C 2,7 UV-I 6,0 C 52 % 69 % 100 % 1012,4 hPa 0,0 l/m 8,2 km/h (2 Bft) 1,00 h 0,00 h 14,8 km/h (3 Bft)
29.07.2012 13:00 24,2 C 20,2 C 2,0 UV-I 4,1 C 49 % 60 % 95 % 1012,6 hPa 0,0 l/m 7,6 km/h (2 Bft) 0,83 h 0,00 h 15,1 km/h (3 Bft)
29.07.2012 14:00 24,9 C 20,7 C 2,3 UV-I 4,1 C 45 % 53 % 94 % 1012,8 hPa 0,0 l/m 8,8 km/h (2 Bft) 0,87 h 0,00 h 12,9 km/h (3 Bft)
29.07.2012 15:00 26,5 C 22,0 C 2,9 UV-I 5,3 C 41 % 52 % 100 % 1013,0 hPa 0,0 l/m 7,9 km/h (2 Bft) 1,00 h 0,00 h 15,3 km/h (3 Bft)
29.07.2012 16:00 27,6 C 21,8 C 2,8 UV-I 4,3 C 38 % 51 % 98 % 1012,9 hPa 0,0 l/m 7,2 km/h (2 Bft) 0,97 h 0,00 h 14,4 km/h (3 Bft)
29.07.2012 17:00 26,6 C 20,3 C 0,8 UV-I 1,6 C 39 % 56 % 43 % 1013,4 hPa 0,0 l/m 3,5 km/h (1 Bft) 0,17 h 0,00 h 6,1 km/h (2 Bft)
29.07.2012 18:00 26,2 C 20,4 C 1,0 UV-I 2,3 C 41 % 55 % 63 % 1012,8 hPa 0,0 l/m 4,5 km/h (1 Bft) 0,40 h 0,00 h 8,7 km/h (2 Bft)
29.07.2012 19:00 25,5 C 19,9 C 0,5 UV-I 0,1 C 41 % 55 % 3 % 1013,4 hPa 0,0 l/m 2,6 km/h (1 Bft) 0,00 h 0,00 h 5,6 km/h (1 Bft)
29.07.2012 20:00 25,0 C 19,2 C 0,0 UV-I 0,0 C 42 % 58 % 0 % 1013,7 hPa 0,0 l/m 0,6 km/h (0 Bft) 0,00 h 0,00 h 1,8 km/h (1 Bft)
29.07.2012 21:00 24,5 C 17,7 C 0,0 UV-I 0,0 C 43 % 61 % 0 % 1014,1 hPa 0,0 l/m 0,0 km/h (0 Bft) 0,00 h 0,00 h 0,0 km/h (0 Bft)
29.07.2012 22:00 24,1 C 16,5 C 0,0 UV-I 0,0 C 44 % 65 % 0 % 1014,5 hPa 0,0 l/m 0,1 km/h (0 Bft) 0,00 h 0,00 h 0,3 km/h (0 Bft)
29.07.2012 23:00 23,8 C 15,9 C 0,0 UV-I 0,0 C 45 % 68 % 0 % 1014,4 hPa 0,0 l/m 0,3 km/h (0 Bft) 0,00 h 0,00 h 1,0 km/h (0 Bft)
Min-Datum _ 23.07.12 23.07.12 23.07.12 23.07.12 29.07.12 23.07.12 23.07.12 28.07.12 - 23.07.12 - - 23.07.12
_ Min-Zeit 06:26 06:10 00:00 00:00 16:18 16:52 00:00 01:52 - 00:00 - - 00:00
Minimum _ 21,2 C 11,4 C 0,0 UV-I 0,0 C 37 % 35 % 0 % 1005,3 hPa - 0,0 km/h (0 Bft) - - 0,0 km/h (0 Bft)
Max-Datum _ 27.07.12 27.07.12 24.07.12 24.07.12 28.07.12 28.07.12 23.07.12 23.07.12 28.07.12 26.07.12 23.07.12 24.07.12 29.07.12
_ Max-Zeit 15:56 15:28 10:40 09:04 06:50 07:20 08:28 07:32 06:28 18:38 08:28 03:58 16:52
Maximum _ 29,4 C 32,1 C 5,7 UV-I 10,1 C 65 % 97 % 100 % 1027,8 hPa 2,8 l/m 15,7 km/h
W-SW (3 Bft)
0,03 h 0,03 h 37,7 km/h
S (5 Bft)
Durchschnitt _ 25,0 C 21,4 C 1,0 UV-I 2,2 C 56 % 73 % 40 % 1014,9 hPa #13,1 l/m 2,8 km/h (1 Bft) #57:59 h #5:13 h 5,5 km/h (1 Bft)
© 2012 W. Hausmann